Wolke Sonne

Wetter Ammerndorf

Gehe zu: Roßtal

Tageswerte vom Dienstag, 18.01.2022

Optionen

Tag:
Erweitert:

Alle Werte vom Dienstag, 18.01.2022

Einen Moment bitte, die Daten werden aufbereitet...

UhrzeitTemperaturBoden 10cmBoden 20cmFeuchteLuftdruckNiederschlagEvapotranspirationWindWindböenWindrichtungSolarstrahlungUV-IndexSonne?Uhrzeit
Diagramm IconDiagramm IconDiagramm IconDiagramm IconDiagramm IconDiagramm IconDiagramm IconDiagramm IconDiagramm IconDiagramm IconDiagramm IconDiagramm IconDiagramm Icon
00:002,3 °C 3,3 °C 3,3 °C 94 % 1036,6 hPa 0,0 mm - 1,4 km/h 7,9 km/h WSW 0,0 W/qm 0,0 nein 00:00
00:052,3 °C 3,3 °C 3,3 °C 94 % 1036,6 hPa 0,0 mm 0,0 mm 1,4 km/h 7,9 km/h SSW 0,0 W/qm 0,0 nein 00:05
00:102,2 °C 3,3 °C 3,3 °C 94 % 1036,5 hPa 0,0 mm 0,0 mm 0,0 km/h 7,9 km/h WSW 0,0 W/qm 0,0 nein 00:10
00:152,2 °C 3,3 °C 3,3 °C 94 % 1036,5 hPa 0,0 mm - 0,0 km/h 6,5 km/h WSW 0,0 W/qm 0,0 nein 00:15
00:202,2 °C 3,3 °C 3,3 °C 94 % 1036,5 hPa 0,0 mm - 0,0 km/h 4,7 km/h WSW 0,0 W/qm 0,0 nein 00:20
00:252,1 °C 3,3 °C 3,3 °C 94 % 1036,5 hPa 0,0 mm - 0,0 km/h 4,7 km/h WSW 0,0 W/qm 0,0 nein 00:25
00:302,1 °C 3,3 °C 3,3 °C 94 % 1036,8 hPa 0,0 mm - 0,0 km/h 4,7 km/h WSW 0,0 W/qm 0,0 nein 00:30
00:352,0 °C 3,3 °C 3,3 °C 94 % 1036,7 hPa 0,0 mm - 0,0 km/h 0,0 km/h WSW 0,0 W/qm 0,0 nein 00:35
00:401,9 °C 3,3 °C 3,3 °C 94 % 1036,6 hPa 0,0 mm - 0,0 km/h 0,0 km/h WSW 0,0 W/qm 0,0 nein 00:40
00:451,9 °C 3,3 °C 3,3 °C 94 % 1036,7 hPa 0,0 mm - 0,0 km/h 0,0 km/h WSW 0,0 W/qm 0,0 nein 00:45
00:501,9 °C 3,3 °C 3,3 °C 94 % 1036,8 hPa 0,0 mm - 0,0 km/h 0,0 km/h WSW 0,0 W/qm 0,0 nein 00:50
00:551,9 °C 3,3 °C 3,3 °C 94 % 1036,9 hPa 0,0 mm - 0,0 km/h 0,0 km/h WSW 0,0 W/qm 0,0 nein 00:55
01:001,9 °C 3,3 °C 3,3 °C 94 % 1036,9 hPa 0,0 mm - 0,0 km/h 0,0 km/h WSW 0,0 W/qm 0,0 nein 01:00
01:051,8 °C 3,3 °C 3,3 °C 94 % 1037,0 hPa 0,0 mm 0,0 mm 0,0 km/h 0,0 km/h WSW 0,0 W/qm 0,0 nein 01:05
01:101,9 °C 3,3 °C 3,3 °C 94 % 1037,1 hPa 0,4 mm 0,0 mm 0,0 km/h 0,0 km/h WSW 0,0 W/qm 0,0 nein 01:10
01:151,9 °C 3,3 °C 3,3 °C 94 % 1037,1 hPa 0,2 mm - 0,0 km/h 0,0 km/h WSW 0,0 W/qm 0,0 nein 01:15
01:201,9 °C 3,3 °C 3,3 °C 94 % 1037,2 hPa 0,0 mm - 0,0 km/h 0,0 km/h WSW 0,0 W/qm 0,0 nein 01:20
01:252,0 °C 3,3 °C 3,3 °C 94 % 1037,1 hPa 0,0 mm - 0,0 km/h 3,2 km/h WSW 0,0 W/qm 0,0 nein 01:25
01:302,0 °C 3,3 °C 3,3 °C 94 % 1037,2 hPa 0,0 mm - 0,0 km/h 3,2 km/h WSW 0,0 W/qm 0,0 nein 01:30
01:352,0 °C 3,3 °C 3,3 °C 94 % 1037,3 hPa 0,0 mm - 0,0 km/h 3,2 km/h WSW 0,0 W/qm 0,0 nein 01:35
01:402,0 °C 3,3 °C 3,3 °C 94 % 1037,4 hPa 0,0 mm - 0,0 km/h 3,2 km/h WSW 0,0 W/qm 0,0 nein 01:40
01:452,0 °C 3,3 °C 3,3 °C 94 % 1037,5 hPa 0,0 mm - 0,0 km/h 3,2 km/h WSW 0,0 W/qm 0,0 nein 01:45
01:502,0 °C 3,3 °C 3,3 °C 94 % 1037,5 hPa 0,0 mm - 0,0 km/h 0,0 km/h WSW 0,0 W/qm 0,0 nein 01:50
01:552,0 °C 3,3 °C 3,3 °C 94 % 1037,5 hPa 0,0 mm - 0,0 km/h 0,0 km/h WSW 0,0 W/qm 0,0 nein 01:55
UhrzeitTemperaturBoden 10cmBoden 20cmFeuchteLuftdruckNiederschlagEvapotranspirationWindWindböenWindrichtungSolarstrahlungUV-IndexSonne?Uhrzeit
02:001,9 °C 3,3 °C 3,3 °C 94 % 1037,7 hPa 0,0 mm - 0,0 km/h 0,0 km/h WSW 0,0 W/qm 0,0 nein 02:00
02:051,9 °C 3,3 °C 3,3 °C 94 % 1037,8 hPa 0,0 mm 0,0 mm 0,0 km/h 3,2 km/h WSW 0,0 W/qm 0,0 nein 02:05
02:101,9 °C 3,3 °C 3,3 °C 94 % 1037,8 hPa 0,0 mm 0,0 mm 0,0 km/h 3,2 km/h WSW 0,0 W/qm 0,0 nein 02:10
02:151,8 °C 3,3 °C 3,3 °C 94 % 1037,8 hPa 0,0 mm - 0,0 km/h 3,2 km/h WSW 0,0 W/qm 0,0 nein 02:15
02:201,8 °C 3,3 °C 3,3 °C 94 % 1037,8 hPa 0,0 mm - 0,0 km/h 0,0 km/h WSW 0,0 W/qm 0,0 nein 02:20
02:251,8 °C 3,3 °C 3,3 °C 94 % 1037,8 hPa 0,0 mm - 0,0 km/h 0,0 km/h WSW 0,0 W/qm 0,0 nein 02:25
02:301,8 °C 3,3 °C 3,3 °C 94 % 1037,9 hPa 0,0 mm - 0,0 km/h 0,0 km/h WSW 0,0 W/qm 0,0 nein 02:30
02:351,7 °C 3,3 °C 3,3 °C 94 % 1038,0 hPa 0,0 mm - 0,0 km/h 0,0 km/h WSW 0,0 W/qm 0,0 nein 02:35
02:401,7 °C 3,3 °C 3,3 °C 94 % 1038,0 hPa 0,0 mm - 0,0 km/h 0,0 km/h WSW 0,0 W/qm 0,0 nein 02:40
02:451,7 °C 3,3 °C 3,3 °C 94 % 1037,9 hPa 0,0 mm - 0,0 km/h 0,0 km/h WSW 0,0 W/qm 0,0 nein 02:45
02:501,7 °C 3,3 °C 3,3 °C 94 % 1038,2 hPa 0,0 mm - 0,0 km/h 0,0 km/h WSW 0,0 W/qm 0,0 nein 02:50
02:551,6 °C 3,3 °C 3,3 °C 94 % 1038,2 hPa 0,0 mm - 0,0 km/h 0,0 km/h WSW 0,0 W/qm 0,0 nein 02:55
03:001,6 °C 3,3 °C 3,3 °C 94 % 1038,2 hPa 0,0 mm - 0,0 km/h 0,0 km/h WSW 0,0 W/qm 0,0 nein 03:00
03:051,6 °C 3,3 °C 3,3 °C 94 % 1038,0 hPa 0,0 mm 0,0 mm 0,0 km/h 0,0 km/h WSW 0,0 W/qm 0,0 nein 03:05
03:101,6 °C 3,3 °C 3,3 °C 94 % 1037,9 hPa 0,0 mm 0,0 mm 0,0 km/h 0,0 km/h WSW 0,0 W/qm 0,0 nein 03:10
03:151,6 °C 3,3 °C 3,3 °C 94 % 1037,9 hPa 0,0 mm - 0,0 km/h 0,0 km/h WSW 0,0 W/qm 0,0 nein 03:15
03:201,6 °C 3,3 °C 3,3 °C 94 % 1038,0 hPa 0,0 mm - 0,0 km/h 0,0 km/h WSW 0,0 W/qm 0,0 nein 03:20
03:251,5 °C 3,3 °C 3,3 °C 94 % 1037,9 hPa 0,0 mm - 0,0 km/h 0,0 km/h WSW 0,0 W/qm 0,0 nein 03:25
03:301,5 °C 3,3 °C 3,3 °C 94 % 1038,0 hPa 0,0 mm - 0,0 km/h 0,0 km/h WSW 0,0 W/qm 0,0 nein 03:30
03:351,4 °C 3,3 °C 3,3 °C 94 % 1037,8 hPa 0,0 mm - 0,0 km/h 0,0 km/h WSW 0,0 W/qm 0,0 nein 03:35
03:401,4 °C 3,3 °C 3,3 °C 94 % 1037,8 hPa 0,0 mm - 0,0 km/h 0,0 km/h WSW 0,0 W/qm 0,0 nein 03:40
03:451,4 °C 3,3 °C 3,3 °C 94 % 1037,8 hPa 0,0 mm - 0,0 km/h 0,0 km/h WSW 0,0 W/qm 0,0 nein 03:45
03:501,4 °C 3,3 °C 3,3 °C 94 % 1037,8 hPa 0,0 mm - 0,0 km/h 0,0 km/h WSW 0,0 W/qm 0,0 nein 03:50
03:551,4 °C 3,3 °C 3,3 °C 94 % 1037,8 hPa 0,0 mm - 0,0 km/h 0,0 km/h WSW 0,0 W/qm 0,0 nein 03:55
UhrzeitTemperaturBoden 10cmBoden 20cmFeuchteLuftdruckNiederschlagEvapotranspirationWindWindböenWindrichtungSolarstrahlungUV-IndexSonne?Uhrzeit
04:001,3 °C 3,3 °C 3,3 °C 94 % 1037,8 hPa 0,0 mm - 0,0 km/h 0,0 km/h WSW 0,0 W/qm 0,0 nein 04:00
04:051,3 °C 3,3 °C 3,3 °C 94 % 1037,8 hPa 0,0 mm 0,0 mm 0,0 km/h 0,0 km/h WSW 0,0 W/qm 0,0 nein 04:05
04:101,3 °C 3,3 °C 3,3 °C 94 % 1037,9 hPa 0,0 mm 0,0 mm 0,0 km/h 0,0 km/h WSW 0,0 W/qm 0,0 nein 04:10
04:151,3 °C 3,3 °C 3,3 °C 94 % 1037,8 hPa 0,0 mm - 0,0 km/h 0,0 km/h WSW 0,0 W/qm 0,0 nein 04:15
04:201,2 °C 3,3 °C 3,3 °C 94 % 1037,8 hPa 0,0 mm - 0,0 km/h 0,0 km/h WSW 0,0 W/qm 0,0 nein 04:20
04:251,2 °C 3,3 °C 3,3 °C 94 % 1037,8 hPa 0,0 mm - 0,0 km/h 0,0 km/h WSW 0,0 W/qm 0,0 nein 04:25
04:301,2 °C 3,3 °C 3,3 °C 94 % 1037,9 hPa 0,0 mm - 0,0 km/h 0,0 km/h WSW 0,0 W/qm 0,0 nein 04:30
04:351,1 °C 3,3 °C 3,3 °C 94 % 1038,1 hPa 0,0 mm - 0,0 km/h 0,0 km/h WSW 0,0 W/qm 0,0 nein 04:35
04:401,1 °C 3,3 °C 3,3 °C 94 % 1038,2 hPa 0,0 mm - 1,4 km/h 0,0 km/h ONO 0,0 W/qm 0,0 nein 04:40
04:451,1 °C 3,3 °C 3,3 °C 94 % 1038,3 hPa 0,0 mm - 1,4 km/h 3,2 km/h ONO 0,0 W/qm 0,0 nein 04:45
04:501,1 °C 3,3 °C 3,3 °C 94 % 1038,3 hPa 0,0 mm - 0,0 km/h 4,7 km/h ONO 0,0 W/qm 0,0 nein 04:50
04:551,1 °C 3,3 °C 3,3 °C 94 % 1038,2 hPa 0,0 mm - 0,0 km/h 4,7 km/h ONO 0,0 W/qm 0,0 nein 04:55
05:001,1 °C 3,3 °C 3,3 °C 94 % 1038,2 hPa 0,0 mm - 0,0 km/h 0,0 km/h ONO 0,0 W/qm 0,0 nein 05:00
05:051,1 °C 3,3 °C 3,3 °C 94 % 1038,2 hPa 0,0 mm 0,0 mm 0,0 km/h 0,0 km/h O 0,0 W/qm 0,0 nein 05:05
05:101,1 °C 3,3 °C 3,3 °C 94 % 1038,2 hPa 0,0 mm 0,0 mm 0,0 km/h 0,0 km/h O 0,0 W/qm 0,0 nein 05:10
05:151,0 °C 3,3 °C 3,3 °C 94 % 1038,3 hPa 0,0 mm - 0,0 km/h 0,0 km/h O 0,0 W/qm 0,0 nein 05:15
05:200,9 °C 3,3 °C 3,3 °C 94 % 1038,3 hPa 0,0 mm - 0,0 km/h 0,0 km/h O 0,0 W/qm 0,0 nein 05:20
05:250,9 °C 3,3 °C 3,3 °C 94 % 1038,2 hPa 0,0 mm - 0,0 km/h 0,0 km/h SW 0,0 W/qm 0,0 nein 05:25
05:300,9 °C 3,3 °C 3,3 °C 94 % 1038,2 hPa 0,0 mm - 0,0 km/h 4,7 km/h SW 0,0 W/qm 0,0 nein 05:30
05:350,8 °C 3,3 °C 3,3 °C 94 % 1038,2 hPa 0,0 mm - 0,0 km/h 4,7 km/h SW 0,0 W/qm 0,0 nein 05:35
05:400,8 °C 3,3 °C 3,3 °C 94 % 1038,2 hPa 0,0 mm - 0,0 km/h 4,7 km/h SW 0,0 W/qm 0,0 nein 05:40
05:450,8 °C 3,3 °C 3,3 °C 94 % 1038,3 hPa 0,0 mm - 0,0 km/h 1,4 km/h SW 0,0 W/qm 0,0 nein 05:45
05:500,8 °C 3,3 °C 3,3 °C 94 % 1038,4 hPa 0,0 mm - 0,0 km/h 0,0 km/h SW 0,0 W/qm 0,0 nein 05:50
05:550,9 °C 3,3 °C 3,3 °C 94 % 1038,4 hPa 0,0 mm - 0,0 km/h 0,0 km/h SW 0,0 W/qm 0,0 nein 05:55
UhrzeitTemperaturBoden 10cmBoden 20cmFeuchteLuftdruckNiederschlagEvapotranspirationWindWindböenWindrichtungSolarstrahlungUV-IndexSonne?Uhrzeit
06:000,9 °C 3,3 °C 3,3 °C 94 % 1038,5 hPa 0,0 mm - 0,0 km/h 0,0 km/h SW 0,0 W/qm 0,0 nein 06:00
06:050,9 °C 3,3 °C 3,3 °C 94 % 1038,4 hPa 0,0 mm 0,0 mm 0,0 km/h 0,0 km/h SW 0,0 W/qm 0,0 nein 06:05
06:100,9 °C 3,3 °C 3,3 °C 94 % 1038,5 hPa 0,0 mm 0,0 mm 0,0 km/h 0,0 km/h SW 0,0 W/qm 0,0 nein 06:10
06:150,9 °C 3,3 °C 3,3 °C 94 % 1038,5 hPa 0,0 mm - 0,0 km/h 0,0 km/h SW 0,0 W/qm 0,0 nein 06:15
06:200,9 °C 3,3 °C 3,3 °C 94 % 1038,6 hPa 0,0 mm - 0,0 km/h 0,0 km/h SW 0,0 W/qm 0,0 nein 06:20
06:250,9 °C 3,3 °C 3,3 °C 95 % 1038,6 hPa 0,0 mm - 0,0 km/h 0,0 km/h SW 0,0 W/qm 0,0 nein 06:25
06:300,9 °C 3,3 °C 3,3 °C 95 % 1038,6 hPa 0,0 mm - 0,0 km/h 0,0 km/h SW 0,0 W/qm 0,0 nein 06:30
06:350,8 °C 3,3 °C 3,3 °C 95 % 1038,6 hPa 0,2 mm - 0,0 km/h 0,0 km/h SW 0,0 W/qm 0,0 nein 06:35
06:400,9 °C 3,3 °C 3,3 °C 95 % 1038,6 hPa 0,0 mm - 0,0 km/h 0,0 km/h SW 0,0 W/qm 0,0 nein 06:40
06:450,9 °C 3,3 °C 3,3 °C 95 % 1038,8 hPa 0,0 mm - 0,0 km/h 0,0 km/h SW 0,0 W/qm 0,0 nein 06:45
06:500,9 °C 3,3 °C 3,3 °C 95 % 1038,9 hPa 0,0 mm - 0,0 km/h 0,0 km/h SW 0,0 W/qm 0,0 nein 06:50
06:550,9 °C 3,3 °C 3,3 °C 94 % 1038,9 hPa 0,0 mm - 0,0 km/h 0,0 km/h SW 0,0 W/qm 0,0 nein 06:55
07:000,9 °C 3,3 °C 3,3 °C 94 % 1039,0 hPa 0,0 mm - 0,0 km/h 0,0 km/h SW 0,0 W/qm 0,0 nein 07:00
07:050,9 °C 3,3 °C 3,3 °C 94 % 1039,0 hPa 0,0 mm 0,0 mm 0,0 km/h 0,0 km/h SW 0,0 W/qm 0,0 nein 07:05
07:100,9 °C 3,3 °C 3,3 °C 94 % 1039,1 hPa 0,0 mm 0,0 mm 0,0 km/h 0,0 km/h SW 0,0 W/qm 0,0 nein 07:10
07:150,8 °C 3,3 °C 3,3 °C 95 % 1039,1 hPa 0,0 mm - 0,0 km/h 0,0 km/h SW 0,0 W/qm 0,0 nein 07:15
07:200,8 °C 3,3 °C 3,3 °C 94 % 1039,0 hPa 0,0 mm - 0,0 km/h 0,0 km/h SW 0,0 W/qm 0,0 nein 07:20
07:250,8 °C 3,3 °C 3,3 °C 94 % 1039,1 hPa 0,0 mm - 0,0 km/h 0,0 km/h SW 0,0 W/qm 0,0 nein 07:25
07:300,7 °C 3,3 °C 3,3 °C 95 % 1039,3 hPa 0,0 mm - 0,0 km/h 0,0 km/h SW 0,0 W/qm 0,0 nein 07:30
07:350,7 °C 3,3 °C 3,3 °C 95 % 1039,4 hPa 0,0 mm - 0,0 km/h 0,0 km/h SW 0,0 W/qm 0,0 nein 07:35
07:400,7 °C 3,3 °C 3,3 °C 95 % 1039,5 hPa 0,0 mm - 0,0 km/h 0,0 km/h SW 0,0 W/qm 0,0 nein 07:40
07:450,7 °C 3,3 °C 3,3 °C 95 % 1039,5 hPa 0,0 mm - 0,0 km/h 0,0 km/h SW 0,0 W/qm 0,0 nein 07:45
07:500,7 °C 3,3 °C 3,3 °C 95 % 1039,7 hPa 0,0 mm - 0,0 km/h 0,0 km/h SW 0,0 W/qm 0,0 nein 07:50
07:550,7 °C 3,3 °C 3,3 °C 95 % 1039,7 hPa 0,0 mm - 0,0 km/h 0,0 km/h SW 0,0 W/qm 0,0 nein 07:55
UhrzeitTemperaturBoden 10cmBoden 20cmFeuchteLuftdruckNiederschlagEvapotranspirationWindWindböenWindrichtungSolarstrahlungUV-IndexSonne?Uhrzeit
08:000,7 °C 3,3 °C 3,3 °C 95 % 1039,7 hPa 0,0 mm - 0,0 km/h 0,0 km/h SW 0,0 W/qm 0,0 nein 08:00
08:050,7 °C 3,3 °C 3,3 °C 95 % 1039,8 hPa 0,0 mm 0,0 mm 0,0 km/h 0,0 km/h SW 5,0 W/qm 0,0 nein 08:05
08:100,7 °C 3,3 °C 3,3 °C 95 % 1039,9 hPa 0,0 mm 0,0 mm 0,0 km/h 0,0 km/h SW 7,0 W/qm 0,0 nein 08:10
08:150,7 °C 3,3 °C 3,3 °C 95 % 1039,9 hPa 0,0 mm - 0,0 km/h 0,0 km/h SW 7,0 W/qm 0,0 nein 08:15
08:200,7 °C 3,3 °C 3,3 °C 95 % 1040,0 hPa 0,0 mm - 0,0 km/h 0,0 km/h SW 11,0 W/qm 0,0 nein 08:20
08:250,8 °C 3,3 °C 3,3 °C 95 % 1040,0 hPa 0,0 mm - 0,0 km/h 0,0 km/h SW 14,0 W/qm 0,0 nein 08:25
08:300,8 °C 3,3 °C 3,3 °C 95 % 1040,1 hPa 0,0 mm - 0,0 km/h 0,0 km/h SW 12,0 W/qm 0,0 nein 08:30
08:350,8 °C 3,3 °C 3,3 °C 95 % 1040,1 hPa 0,0 mm - 0,0 km/h 0,0 km/h SW 19,0 W/qm 0,0 nein 08:35
08:400,8 °C 3,3 °C 3,3 °C 95 % 1040,2 hPa 0,0 mm - 0,0 km/h 0,0 km/h SW 21,0 W/qm 0,0 nein 08:40
08:450,9 °C 3,3 °C 3,3 °C 95 % 1040,2 hPa 0,0 mm - 0,0 km/h 0,0 km/h SW 23,0 W/qm 0,0 nein 08:45
08:500,9 °C 3,3 °C 3,3 °C 95 % 1040,3 hPa 0,0 mm - 0,0 km/h 0,0 km/h SW 30,0 W/qm 0,0 nein 08:50
08:550,9 °C 3,3 °C 3,3 °C 95 % 1040,3 hPa 0,0 mm - 0,0 km/h 0,0 km/h SW 49,0 W/qm 0,0 nein 08:55
09:000,9 °C 3,3 °C 3,3 °C 95 % 1040,4 hPa 0,0 mm - 0,0 km/h 0,0 km/h SW 46,0 W/qm 0,0 nein 09:00
09:050,9 °C 3,3 °C 3,3 °C 95 % 1040,4 hPa 0,0 mm 0,0 mm 0,0 km/h 0,0 km/h SW 53,0 W/qm 0,0 nein 09:05
09:100,9 °C 3,3 °C 3,3 °C 95 % 1040,4 hPa 0,0 mm 0,0 mm 0,0 km/h 0,0 km/h SW 54,0 W/qm 0,0 nein 09:10
09:151,0 °C 3,3 °C 3,3 °C 95 % 1040,3 hPa 0,0 mm - 0,0 km/h 0,0 km/h SW 63,0 W/qm 0,0 nein 09:15
09:201,1 °C 3,3 °C 3,3 °C 95 % 1040,3 hPa 0,0 mm - 0,0 km/h 0,0 km/h SW 60,0 W/qm 0,0 nein 09:20
09:251,2 °C 3,3 °C 3,3 °C 95 % 1040,3 hPa 0,0 mm - 0,0 km/h 0,0 km/h SW 83,0 W/qm 0,0 nein 09:25
09:301,3 °C 3,3 °C 3,3 °C 95 % 1040,3 hPa 0,0 mm - 0,0 km/h 0,0 km/h SW 53,0 W/qm 0,0 nein 09:30
09:351,4 °C 3,3 °C 3,3 °C 95 % 1040,3 hPa 0,0 mm - 0,0 km/h 0,0 km/h SW 60,0 W/qm 0,0 nein 09:35
09:401,4 °C 3,3 °C 3,3 °C 95 % 1040,2 hPa 0,0 mm - 0,0 km/h 0,0 km/h NO 53,0 W/qm 0,0 nein 09:40
09:451,5 °C 3,3 °C 3,3 °C 95 % 1040,4 hPa 0,0 mm - 0,0 km/h 0,0 km/h SSW 60,0 W/qm 0,0 nein 09:45
09:501,6 °C 3,3 °C 3,3 °C 95 % 1040,4 hPa 0,0 mm - 1,4 km/h 3,2 km/h SSW 90,0 W/qm 0,0 nein 09:50
09:551,8 °C 3,3 °C 3,3 °C 95 % 1040,3 hPa 0,0 mm - 1,4 km/h 4,7 km/h SSW 93,0 W/qm 0,0 nein 09:55
UhrzeitTemperaturBoden 10cmBoden 20cmFeuchteLuftdruckNiederschlagEvapotranspirationWindWindböenWindrichtungSolarstrahlungUV-IndexSonne?Uhrzeit
10:001,9 °C 3,3 °C 3,3 °C 95 % 1040,3 hPa 0,0 mm - 0,0 km/h 4,7 km/h SSW 93,0 W/qm 0,0 nein 10:00
10:052,0 °C 3,3 °C 3,3 °C 95 % 1040,3 hPa 0,0 mm 0,0 mm 0,0 km/h 4,7 km/h SSW 77,0 W/qm 0,0 nein 10:05
10:102,1 °C 3,3 °C 3,3 °C 95 % 1040,3 hPa 0,0 mm 0,0 mm 0,0 km/h 4,7 km/h SSW 93,0 W/qm 0,0 nein 10:10
10:152,1 °C 3,3 °C 3,3 °C 95 % 1040,3 hPa 0,0 mm - 0,0 km/h 3,2 km/h SSW 95,0 W/qm 0,0 nein 10:15
10:202,2 °C 3,3 °C 3,3 °C 95 % 1040,4 hPa 0,0 mm - 0,0 km/h 4,7 km/h SSW 125,0 W/qm 0,0 ja 10:20
10:252,4 °C 3,3 °C 3,3 °C 95 % 1040,3 hPa 0,0 mm - 0,0 km/h 4,7 km/h SSW 127,0 W/qm 0,0 ja 10:25
10:302,7 °C 3,3 °C 3,3 °C 95 % 1040,3 hPa 0,0 mm - 1,4 km/h 4,7 km/h SSW 237,0 W/qm 0,5 ja 10:30
10:352,9 °C 3,3 °C 3,3 °C 95 % 1040,3 hPa 0,0 mm - 1,4 km/h 4,7 km/h SSW 241,0 W/qm 0,5 ja 10:35
10:403,2 °C 3,3 °C 3,3 °C 95 % 1040,2 hPa 0,0 mm - 1,4 km/h 4,7 km/h SW 253,0 W/qm 0,5 ja 10:40
10:453,3 °C 3,3 °C 3,3 °C 94 % 1040,2 hPa 0,0 mm - 3,2 km/h 4,7 km/h S 253,0 W/qm 0,5 ja 10:45
10:503,4 °C 3,3 °C 3,3 °C 94 % 1040,3 hPa 0,0 mm - 1,4 km/h 6,5 km/h O 295,0 W/qm 0,5 ja 10:50
10:553,6 °C 3,3 °C 3,3 °C 93 % 1040,3 hPa 0,0 mm - 0,0 km/h 6,5 km/h NW 179,0 W/qm 0,5 ja 10:55
11:003,7 °C 3,3 °C 3,3 °C 93 % 1040,1 hPa 0,0 mm - 1,4 km/h 6,5 km/h SSW 225,0 W/qm 0,5 ja 11:00
11:053,9 °C 3,3 °C 3,3 °C 92 % 1040,2 hPa 0,0 mm 0,1 mm 4,7 km/h 9,7 km/h SSW 503,0 W/qm 0,5 ja 11:05
11:104,2 °C 3,3 °C 3,3 °C 92 % 1040,1 hPa 0,0 mm 0,1 mm 3,2 km/h 9,7 km/h SW 281,0 W/qm 0,0 ja 11:10
11:154,2 °C 3,3 °C 3,3 °C 91 % 1040,2 hPa 0,0 mm - 4,7 km/h 9,7 km/h ONO 111,0 W/qm 0,0 ja 11:15
11:204,1 °C 3,3 °C 3,3 °C 90 % 1040,2 hPa 0,0 mm - 4,7 km/h 11,2 km/h NW 84,0 W/qm 0,5 nein 11:20
11:253,7 °C 3,3 °C 3,3 °C 90 % 1040,1 hPa 0,0 mm - 1,4 km/h 11,2 km/h NNO 70,0 W/qm 0,6 nein 11:25
11:303,5 °C 3,3 °C 3,3 °C 90 % 1040,2 hPa 0,0 mm - 0,0 km/h 11,2 km/h NNW 60,0 W/qm 0,6 nein 11:30
11:353,3 °C 3,3 °C 3,3 °C 90 % 1040,1 hPa 0,0 mm - 0,0 km/h 6,5 km/h NNW 62,0 W/qm 0,6 nein 11:35
11:403,4 °C 3,3 °C 3,3 °C 91 % 1040,0 hPa 0,0 mm - 0,0 km/h 4,7 km/h N 345,0 W/qm 0,7 ja 11:40
11:454,1 °C 3,3 °C 3,3 °C 91 % 1039,9 hPa 0,0 mm - 1,4 km/h 4,7 km/h SSW 387,0 W/qm 0,7 ja 11:45
11:504,7 °C 3,3 °C 3,3 °C 89 % 1039,8 hPa 0,0 mm - 1,4 km/h 4,7 km/h WNW 418,0 W/qm 0,8 ja 11:50
11:555,0 °C 3,3 °C 3,9 °C 88 % 1039,7 hPa 0,0 mm - 3,2 km/h 7,9 km/h ONO 554,0 W/qm 0,8 ja 11:55
UhrzeitTemperaturBoden 10cmBoden 20cmFeuchteLuftdruckNiederschlagEvapotranspirationWindWindböenWindrichtungSolarstrahlungUV-IndexSonne?Uhrzeit
12:004,9 °C 3,3 °C 3,9 °C 86 % 1039,8 hPa 0,0 mm - 6,5 km/h 7,9 km/h NO 193,0 W/qm 0,5 ja 12:00
12:054,6 °C 3,3 °C 3,9 °C 86 % 1039,7 hPa 0,0 mm 0,2 mm 6,5 km/h 13,0 km/h NO 97,0 W/qm 0,5 nein 12:05
12:104,3 °C 3,3 °C 3,9 °C 86 % 1039,6 hPa 0,0 mm 0,2 mm 6,5 km/h 13,0 km/h NO 62,0 W/qm 0,6 nein 12:10
12:154,1 °C 3,3 °C 3,9 °C 86 % 1039,8 hPa 0,0 mm - 3,2 km/h 13,0 km/h NO 69,0 W/qm 0,6 nein 12:15
12:203,9 °C 3,3 °C 3,9 °C 86 % 1039,8 hPa 0,0 mm - 1,4 km/h 13,0 km/h NNO 118,0 W/qm 0,7 ja 12:20
12:253,9 °C 3,3 °C 3,9 °C 86 % 1039,7 hPa 0,0 mm - 0,0 km/h 7,9 km/h NNO 183,0 W/qm 0,7 ja 12:25
12:304,2 °C 3,3 °C 3,9 °C 87 % 1039,7 hPa 0,0 mm - 0,0 km/h 7,9 km/h NO 480,0 W/qm 0,8 ja 12:30
12:354,7 °C 3,3 °C 3,9 °C 85 % 1039,5 hPa 0,0 mm - 3,2 km/h 4,7 km/h NO 396,0 W/qm 0,8 ja 12:35
12:404,8 °C 3,3 °C 3,9 °C 84 % 1039,5 hPa 0,0 mm - 4,7 km/h 6,5 km/h NO 181,0 W/qm 0,7 ja 12:40
12:454,7 °C 3,3 °C 3,9 °C 84 % 1039,5 hPa 0,0 mm - 3,2 km/h 9,7 km/h NO 156,0 W/qm 0,7 ja 12:45
12:504,6 °C 3,3 °C 3,9 °C 84 % 1039,4 hPa 0,0 mm - 4,7 km/h 9,7 km/h NO 346,0 W/qm 0,8 ja 12:50
12:554,9 °C 3,3 °C 3,9 °C 83 % 1039,5 hPa 0,0 mm - 4,7 km/h 7,9 km/h WSW 459,0 W/qm 0,7 ja 12:55
13:005,1 °C 3,3 °C 3,9 °C 83 % 1039,4 hPa 0,0 mm - 3,2 km/h 11,2 km/h NNO 388,0 W/qm 0,8 ja 13:00
13:055,1 °C 3,3 °C 3,9 °C 82 % 1039,3 hPa 0,0 mm 0,3 mm 1,4 km/h 11,2 km/h SW 290,0 W/qm 0,6 ja 13:05
13:105,2 °C 3,3 °C 3,9 °C 83 % 1039,4 hPa 0,0 mm 0,3 mm 1,4 km/h 7,9 km/h O 206,0 W/qm 0,6 ja 13:10
13:154,9 °C 3,3 °C 3,9 °C 83 % 1039,5 hPa 0,0 mm - 1,4 km/h 11,2 km/h O 149,0 W/qm 0,5 ja 13:15
13:204,6 °C 3,3 °C 3,9 °C 85 % 1039,5 hPa 0,0 mm - 1,4 km/h 11,2 km/h ONO 135,0 W/qm 0,0 ja 13:20
13:254,5 °C 3,3 °C 3,9 °C 85 % 1039,4 hPa 0,0 mm - 1,4 km/h 11,2 km/h N 100,0 W/qm 0,0 nein 13:25
13:304,4 °C 3,3 °C 3,9 °C 85 % 1039,4 hPa 0,0 mm - 0,0 km/h 6,5 km/h N 83,0 W/qm 0,0 nein 13:30
13:354,4 °C 3,3 °C 3,9 °C 86 % 1039,4 hPa 0,0 mm - 0,0 km/h 6,5 km/h N 74,0 W/qm 0,0 nein 13:35
13:404,4 °C 3,3 °C 3,9 °C 86 % 1039,2 hPa 0,0 mm - 0,0 km/h 3,2 km/h N 65,0 W/qm 0,0 nein 13:40
13:454,4 °C 3,3 °C 3,9 °C 85 % 1039,3 hPa 0,0 mm - 0,0 km/h 1,4 km/h SSO 69,0 W/qm 0,0 nein 13:45
13:504,3 °C 3,3 °C 3,9 °C 85 % 1039,2 hPa 0,0 mm - 0,0 km/h 6,5 km/h SSO 72,0 W/qm 0,0 nein 13:50
13:554,4 °C 3,3 °C 3,9 °C 86 % 1039,2 hPa 0,0 mm - 0,0 km/h 6,5 km/h S 70,0 W/qm 0,0 nein 13:55
UhrzeitTemperaturBoden 10cmBoden 20cmFeuchteLuftdruckNiederschlagEvapotranspirationWindWindböenWindrichtungSolarstrahlungUV-IndexSonne?Uhrzeit
14:004,4 °C 3,9 °C 3,9 °C 85 % 1039,1 hPa 0,0 mm - 0,0 km/h 6,5 km/h S 95,0 W/qm 0,0 nein 14:00
14:054,4 °C 3,9 °C 3,9 °C 86 % 1039,1 hPa 0,0 mm 0,3 mm 0,0 km/h 3,2 km/h WSW 118,0 W/qm 0,5 ja 14:05
14:104,4 °C 3,9 °C 3,9 °C 86 % 1039,0 hPa 0,0 mm 0,3 mm 0,0 km/h 4,7 km/h WSW 274,0 W/qm 0,5 ja 14:10
14:154,9 °C 3,9 °C 3,9 °C 86 % 1038,9 hPa 0,0 mm - 0,0 km/h 4,7 km/h WSW 343,0 W/qm 0,5 ja 14:15
14:205,1 °C 3,9 °C 3,9 °C 85 % 1038,8 hPa 0,0 mm - 0,0 km/h 4,7 km/h O 223,0 W/qm 0,5 ja 14:20
14:254,9 °C 3,9 °C 3,9 °C 85 % 1038,8 hPa 0,0 mm - 1,4 km/h 4,7 km/h ONO 323,0 W/qm 0,5 ja 14:25
14:304,7 °C 3,9 °C 3,9 °C 85 % 1038,9 hPa 0,0 mm - 3,2 km/h 6,5 km/h NO 121,0 W/qm 0,0 ja 14:30
14:354,6 °C 3,9 °C 3,9 °C 86 % 1038,9 hPa 0,0 mm - 3,2 km/h 13,0 km/h ONO 97,0 W/qm 0,0 nein 14:35
14:404,4 °C 3,9 °C 3,9 °C 86 % 1038,9 hPa 0,0 mm - 3,2 km/h 13,0 km/h N 111,0 W/qm 0,0 ja 14:40
14:454,4 °C 3,9 °C 3,9 °C 86 % 1038,9 hPa 0,0 mm - 1,4 km/h 13,0 km/h NO 132,0 W/qm 0,0 ja 14:45
14:504,4 °C 3,9 °C 3,9 °C 87 % 1038,9 hPa 0,0 mm - 3,2 km/h 6,5 km/h NO 114,0 W/qm 0,0 ja 14:50
14:554,4 °C 3,9 °C 3,9 °C 87 % 1038,9 hPa 0,0 mm - 4,7 km/h 9,7 km/h N 79,0 W/qm 0,0 nein 14:55
15:004,2 °C 3,9 °C 3,9 °C 87 % 1038,9 hPa 0,0 mm - 6,5 km/h 11,2 km/h NO 65,0 W/qm 0,0 nein 15:00
15:054,1 °C 3,9 °C 3,9 °C 88 % 1038,9 hPa 0,0 mm 0,4 mm 4,7 km/h 11,2 km/h NO 58,0 W/qm 0,0 nein 15:05
15:103,9 °C 3,9 °C 3,9 °C 88 % 1039,0 hPa 0,0 mm 0,4 mm 4,7 km/h 11,2 km/h NO 51,0 W/qm 0,0 nein 15:10
15:153,9 °C 3,9 °C 3,9 °C 88 % 1039,0 hPa 0,0 mm - 3,2 km/h 9,7 km/h NO 49,0 W/qm 0,0 nein 15:15
15:203,9 °C 3,9 °C 3,9 °C 88 % 1039,0 hPa 0,0 mm - 3,2 km/h 6,5 km/h NO 49,0 W/qm 0,0 nein 15:20
15:253,9 °C 3,9 °C 3,9 °C 88 % 1039,1 hPa 0,0 mm - 1,4 km/h 6,5 km/h NO 46,0 W/qm 0,0 nein 15:25
15:303,9 °C 3,9 °C 3,9 °C 88 % 1039,0 hPa 0,0 mm - 1,4 km/h 6,5 km/h NW 39,0 W/qm 0,0 nein 15:30
15:353,8 °C 3,9 °C 3,9 °C 88 % 1039,0 hPa 0,0 mm - 0,0 km/h 4,7 km/h NNO 32,0 W/qm 0,0 nein 15:35
15:403,8 °C 3,9 °C 3,9 °C 88 % 1038,9 hPa 0,0 mm - 0,0 km/h 4,7 km/h NO 35,0 W/qm 0,0 nein 15:40
15:453,8 °C 3,9 °C 3,9 °C 88 % 1038,9 hPa 0,0 mm - 0,0 km/h 4,7 km/h NO 35,0 W/qm 0,0 nein 15:45
15:503,8 °C 3,9 °C 3,9 °C 89 % 1038,9 hPa 0,0 mm - 0,0 km/h 4,7 km/h NO 35,0 W/qm 0,0 nein 15:50
15:553,8 °C 3,9 °C 3,9 °C 89 % 1038,9 hPa 0,0 mm - 0,0 km/h 3,2 km/h NO 33,0 W/qm 0,0 nein 15:55
UhrzeitTemperaturBoden 10cmBoden 20cmFeuchteLuftdruckNiederschlagEvapotranspirationWindWindböenWindrichtungSolarstrahlungUV-IndexSonne?Uhrzeit
16:003,8 °C 3,9 °C 3,9 °C 89 % 1038,8 hPa 0,0 mm - 0,0 km/h 3,2 km/h NO 30,0 W/qm 0,0 nein 16:00
16:053,8 °C 3,9 °C 3,9 °C 89 % 1038,9 hPa 0,0 mm 0,4 mm 1,4 km/h 3,2 km/h NO 26,0 W/qm 0,0 nein 16:05
16:103,8 °C 3,9 °C 3,9 °C 89 % 1038,9 hPa 0,0 mm 0,4 mm 1,4 km/h 6,5 km/h NO 25,0 W/qm 0,0 nein 16:10
16:153,7 °C 3,9 °C 3,9 °C 89 % 1038,9 hPa 0,0 mm - 1,4 km/h 6,5 km/h W 21,0 W/qm 0,0 nein 16:15
16:203,7 °C 3,9 °C 3,9 °C 89 % 1039,0 hPa 0,0 mm - 1,4 km/h 6,5 km/h ONO 19,0 W/qm 0,0 nein 16:20
16:253,7 °C 3,9 °C 3,9 °C 89 % 1038,9 hPa 0,0 mm - 1,4 km/h 4,7 km/h ONO 18,0 W/qm 0,0 nein 16:25
16:303,6 °C 3,9 °C 3,9 °C 89 % 1038,9 hPa 0,0 mm - 1,4 km/h 4,7 km/h ONO 16,0 W/qm 0,0 nein 16:30
16:353,6 °C 3,9 °C 3,9 °C 89 % 1038,7 hPa 0,0 mm - 0,0 km/h 4,7 km/h ONO 12,0 W/qm 0,0 nein 16:35
16:403,4 °C 3,9 °C 3,9 °C 89 % 1038,9 hPa 0,0 mm - 0,0 km/h 4,7 km/h ONO 9,0 W/qm 0,0 nein 16:40
16:453,3 °C 3,9 °C 3,9 °C 90 % 1039,1 hPa 0,0 mm - 0,0 km/h 4,7 km/h ONO 7,0 W/qm 0,0 nein 16:45
16:503,3 °C 3,9 °C 3,9 °C 90 % 1039,0 hPa 0,0 mm - 0,0 km/h 4,7 km/h ONO 5,0 W/qm 0,0 nein 16:50
16:553,2 °C 3,9 °C 3,9 °C 90 % 1039,0 hPa 0,0 mm - 0,0 km/h 3,2 km/h ONO 5,0 W/qm 0,0 nein 16:55
17:003,1 °C 3,9 °C 3,9 °C 91 % 1039,0 hPa 0,0 mm - 0,0 km/h 3,2 km/h ONO 0,0 W/qm 0,0 nein 17:00
17:052,8 °C 3,9 °C 3,9 °C 91 % 1039,0 hPa 0,0 mm 0,4 mm 0,0 km/h 0,0 km/h ONO 0,0 W/qm 0,0 nein 17:05
17:102,6 °C 3,9 °C 3,9 °C 91 % 1039,1 hPa 0,0 mm 0,4 mm 0,0 km/h 0,0 km/h ONO 0,0 W/qm 0,0 nein 17:10
17:152,2 °C 3,9 °C 3,9 °C 91 % 1039,2 hPa 0,0 mm - 0,0 km/h 0,0 km/h ONO 0,0 W/qm 0,0 nein 17:15
17:201,9 °C 3,9 °C 3,9 °C 91 % 1039,3 hPa 0,0 mm - 0,0 km/h 0,0 km/h ONO 0,0 W/qm 0,0 nein 17:20
17:251,7 °C 3,9 °C 3,9 °C 91 % 1039,3 hPa 0,0 mm - 0,0 km/h 0,0 km/h ONO 0,0 W/qm 0,0 nein 17:25
17:301,3 °C 3,9 °C 3,9 °C 92 % 1039,4 hPa 0,0 mm - 0,0 km/h 0,0 km/h ONO 0,0 W/qm 0,0 nein 17:30
17:351,2 °C 3,9 °C 3,9 °C 92 % 1039,4 hPa 0,0 mm - 0,0 km/h 0,0 km/h ONO 0,0 W/qm 0,0 nein 17:35
17:401,0 °C 3,9 °C 3,9 °C 92 % 1039,5 hPa 0,0 mm - 0,0 km/h 0,0 km/h ONO 0,0 W/qm 0,0 nein 17:40
17:450,8 °C 3,9 °C 3,9 °C 92 % 1039,6 hPa 0,0 mm - 0,0 km/h 0,0 km/h ONO 0,0 W/qm 0,0 nein 17:45
17:500,7 °C 3,9 °C 3,9 °C 92 % 1039,7 hPa 0,0 mm - 0,0 km/h 0,0 km/h ONO 0,0 W/qm 0,0 nein 17:50
17:550,8 °C 3,9 °C 3,9 °C 93 % 1039,7 hPa 0,0 mm - 0,0 km/h 0,0 km/h ONO 0,0 W/qm 0,0 nein 17:55
UhrzeitTemperaturBoden 10cmBoden 20cmFeuchteLuftdruckNiederschlagEvapotranspirationWindWindböenWindrichtungSolarstrahlungUV-IndexSonne?Uhrzeit
18:000,9 °C 3,9 °C 3,9 °C 93 % 1039,8 hPa 0,0 mm - 0,0 km/h 0,0 km/h ONO 0,0 W/qm 0,0 nein 18:00
18:051,1 °C 3,9 °C 3,9 °C 93 % 1039,7 hPa 0,0 mm 0,4 mm 0,0 km/h 0,0 km/h ONO 0,0 W/qm 0,0 nein 18:05
18:101,2 °C 3,9 °C 3,9 °C 93 % 1039,7 hPa 0,0 mm 0,4 mm 0,0 km/h 0,0 km/h ONO 0,0 W/qm 0,0 nein 18:10
18:151,2 °C 3,9 °C 3,9 °C 93 % 1039,7 hPa 0,0 mm - 0,0 km/h 0,0 km/h ONO 0,0 W/qm 0,0 nein 18:15
18:201,2 °C 3,9 °C 3,9 °C 93 % 1039,7 hPa 0,0 mm - 0,0 km/h 0,0 km/h ONO 0,0 W/qm 0,0 nein 18:20
18:251,2 °C 3,9 °C 3,9 °C 93 % 1039,8 hPa 0,0 mm - 0,0 km/h 0,0 km/h ONO 0,0 W/qm 0,0 nein 18:25
18:301,3 °C 3,9 °C 3,9 °C 94 % 1039,8 hPa 0,0 mm - 0,0 km/h 0,0 km/h ONO 0,0 W/qm 0,0 nein 18:30
18:351,3 °C 3,9 °C 3,9 °C 94 % 1039,8 hPa 0,0 mm - 0,0 km/h 0,0 km/h ONO 0,0 W/qm 0,0 nein 18:35
18:401,4 °C 3,9 °C 3,9 °C 94 % 1039,8 hPa 0,0 mm - 0,0 km/h 0,0 km/h ONO 0,0 W/qm 0,0 nein 18:40
18:451,4 °C 3,9 °C 3,9 °C 94 % 1039,6 hPa 0,0 mm - 0,0 km/h 0,0 km/h ONO 0,0 W/qm 0,0 nein 18:45
18:501,4 °C 3,9 °C 3,9 °C 94 % 1039,7 hPa 0,0 mm - 0,0 km/h 0,0 km/h ONO 0,0 W/qm 0,0 nein 18:50
18:551,4 °C 3,9 °C 3,9 °C 94 % 1039,7 hPa 0,0 mm - 0,0 km/h 0,0 km/h ONO 0,0 W/qm 0,0 nein 18:55
19:001,5 °C 3,9 °C 3,9 °C 94 % 1039,7 hPa 0,0 mm - 0,0 km/h 0,0 km/h ONO 0,0 W/qm 0,0 nein 19:00
19:051,6 °C 3,9 °C 3,9 °C 94 % 1039,5 hPa 0,0 mm 0,4 mm 0,0 km/h 0,0 km/h ONO 0,0 W/qm 0,0 nein 19:05
19:101,6 °C 3,9 °C 3,9 °C 94 % 1039,4 hPa 0,0 mm 0,4 mm 0,0 km/h 0,0 km/h ONO 0,0 W/qm 0,0 nein 19:10
19:151,6 °C 3,9 °C 3,9 °C 94 % 1039,3 hPa 0,0 mm - 0,0 km/h 0,0 km/h ONO 0,0 W/qm 0,0 nein 19:15
19:201,5 °C 3,9 °C 3,9 °C 94 % 1039,3 hPa 0,0 mm - 0,0 km/h 0,0 km/h ONO 0,0 W/qm 0,0 nein 19:20
19:251,6 °C 3,9 °C 3,9 °C 94 % 1039,2 hPa 0,0 mm - 0,0 km/h 0,0 km/h ONO 0,0 W/qm 0,0 nein 19:25
19:301,6 °C 3,9 °C 3,9 °C 94 % 1039,2 hPa 0,0 mm - 0,0 km/h 0,0 km/h ONO 0,0 W/qm 0,0 nein 19:30
19:351,6 °C 3,9 °C 3,9 °C 94 % 1039,2 hPa 0,0 mm - 0,0 km/h 0,0 km/h ONO 0,0 W/qm 0,0 nein 19:35
19:401,7 °C 3,9 °C 3,9 °C 94 % 1039,3 hPa 0,0 mm - 0,0 km/h 0,0 km/h ONO 0,0 W/qm 0,0 nein 19:40
19:451,7 °C 3,9 °C 3,9 °C 94 % 1039,1 hPa 0,0 mm - 0,0 km/h 0,0 km/h ONO 0,0 W/qm 0,0 nein 19:45
19:501,6 °C 3,9 °C 3,9 °C 94 % 1038,9 hPa 0,0 mm - 0,0 km/h 0,0 km/h ONO 0,0 W/qm 0,0 nein 19:50
19:551,6 °C 3,9 °C 3,9 °C 94 % 1038,7 hPa 0,0 mm - 0,0 km/h 0,0 km/h ONO 0,0 W/qm 0,0 nein 19:55
UhrzeitTemperaturBoden 10cmBoden 20cmFeuchteLuftdruckNiederschlagEvapotranspirationWindWindböenWindrichtungSolarstrahlungUV-IndexSonne?Uhrzeit
20:001,6 °C 3,9 °C 3,9 °C 94 % 1038,7 hPa 0,0 mm - 0,0 km/h 0,0 km/h ONO 0,0 W/qm 0,0 nein 20:00
20:051,6 °C 3,9 °C 3,9 °C 94 % 1038,7 hPa 0,0 mm 0,4 mm 0,0 km/h 0,0 km/h ONO 0,0 W/qm 0,0 nein 20:05
20:101,6 °C 3,9 °C 3,9 °C 94 % 1038,9 hPa 0,0 mm 0,4 mm 0,0 km/h 3,2 km/h ONO 0,0 W/qm 0,0 nein 20:10
20:151,6 °C 3,9 °C 3,9 °C 94 % 1039,0 hPa 0,0 mm - 0,0 km/h 3,2 km/h ONO 0,0 W/qm 0,0 nein 20:15
20:201,6 °C 3,9 °C 3,9 °C 94 % 1039,0 hPa 0,0 mm - 0,0 km/h 3,2 km/h ONO 0,0 W/qm 0,0 nein 20:20
20:251,7 °C 3,9 °C 3,9 °C 94 % 1039,1 hPa 0,0 mm - 0,0 km/h 3,2 km/h ONO 0,0 W/qm 0,0 nein 20:25
20:301,7 °C 3,9 °C 3,9 °C 94 % 1039,1 hPa 0,0 mm - 0,0 km/h 3,2 km/h SSW 0,0 W/qm 0,0 nein 20:30
20:351,7 °C 3,9 °C 3,9 °C 94 % 1039,1 hPa 0,0 mm - 0,0 km/h 3,2 km/h SSW 0,0 W/qm 0,0 nein 20:35
20:401,7 °C 3,9 °C 3,9 °C 94 % 1039,0 hPa 0,0 mm - 0,0 km/h 3,2 km/h SSW 0,0 W/qm 0,0 nein 20:40
20:451,7 °C 3,9 °C 3,9 °C 94 % 1039,0 hPa 0,0 mm - 0,0 km/h 3,2 km/h SSW 0,0 W/qm 0,0 nein 20:45
20:501,7 °C 3,9 °C 3,9 °C 94 % 1039,0 hPa 0,0 mm - 0,0 km/h 0,0 km/h SSW 0,0 W/qm 0,0 nein 20:50
20:551,7 °C 3,9 °C 3,9 °C 94 % 1038,9 hPa 0,0 mm - 0,0 km/h 0,0 km/h SSW 0,0 W/qm 0,0 nein 20:55
21:001,7 °C 3,9 °C 3,9 °C 94 % 1038,8 hPa 0,0 mm - 0,0 km/h 0,0 km/h SSW 0,0 W/qm 0,0 nein 21:00
21:051,7 °C 3,9 °C 3,9 °C 94 % 1038,7 hPa 0,0 mm 0,4 mm 0,0 km/h 0,0 km/h SSW 0,0 W/qm 0,0 nein 21:05
21:101,7 °C 3,9 °C 3,9 °C 94 % 1038,8 hPa 0,0 mm 0,4 mm 0,0 km/h 0,0 km/h SSW 0,0 W/qm 0,0 nein 21:10
21:151,7 °C 3,9 °C 3,9 °C 94 % 1038,8 hPa 0,0 mm - 0,0 km/h 0,0 km/h SSW 0,0 W/qm 0,0 nein 21:15
21:201,7 °C 3,9 °C 3,9 °C 94 % 1038,7 hPa 0,0 mm - 0,0 km/h 0,0 km/h SSW 0,0 W/qm 0,0 nein 21:20
21:251,7 °C 3,9 °C 3,9 °C 94 % 1038,8 hPa 0,0 mm - 0,0 km/h 0,0 km/h SSW 0,0 W/qm 0,0 nein 21:25
21:301,7 °C 3,9 °C 3,9 °C 94 % 1038,7 hPa 0,0 mm - 0,0 km/h 0,0 km/h SSW 0,0 W/qm 0,0 nein 21:30
21:351,6 °C 3,9 °C 3,9 °C 94 % 1038,6 hPa 0,0 mm - 0,0 km/h 0,0 km/h SSW 0,0 W/qm 0,0 nein 21:35
21:401,7 °C 3,9 °C 3,9 °C 94 % 1038,6 hPa 0,0 mm - 0,0 km/h 0,0 km/h SSW 0,0 W/qm 0,0 nein 21:40
21:451,7 °C 3,9 °C 3,9 °C 94 % 1038,6 hPa 0,0 mm - 0,0 km/h 0,0 km/h SSW 0,0 W/qm 0,0 nein 21:45
21:501,7 °C 3,9 °C 3,9 °C 94 % 1038,5 hPa 0,0 mm - 0,0 km/h 0,0 km/h SSW 0,0 W/qm 0,0 nein 21:50
21:551,7 °C 3,9 °C 3,9 °C 94 % 1038,3 hPa 0,0 mm - 0,0 km/h 0,0 km/h SSW 0,0 W/qm 0,0 nein 21:55
UhrzeitTemperaturBoden 10cmBoden 20cmFeuchteLuftdruckNiederschlagEvapotranspirationWindWindböenWindrichtungSolarstrahlungUV-IndexSonne?Uhrzeit
22:001,7 °C 3,9 °C 3,9 °C 94 % 1038,1 hPa 0,0 mm - 0,0 km/h 0,0 km/h SSW 0,0 W/qm 0,0 nein 22:00
22:051,7 °C 3,9 °C 3,9 °C 94 % 1038,0 hPa 0,0 mm 0,4 mm 0,0 km/h 0,0 km/h SSW 0,0 W/qm 0,0 nein 22:05
22:101,7 °C 3,9 °C 3,9 °C 94 % 1037,8 hPa 0,0 mm 0,4 mm 0,0 km/h 0,0 km/h SSW 0,0 W/qm 0,0 nein 22:10
22:151,7 °C 3,9 °C 3,9 °C 94 % 1037,8 hPa 0,0 mm - 0,0 km/h 0,0 km/h SSW 0,0 W/qm 0,0 nein 22:15
22:201,7 °C 3,9 °C 3,9 °C 94 % 1037,6 hPa 0,0 mm - 0,0 km/h 0,0 km/h SSW 0,0 W/qm 0,0 nein 22:20
22:251,6 °C 3,9 °C 3,9 °C 94 % 1037,9 hPa 0,0 mm - 0,0 km/h 0,0 km/h SSW 0,0 W/qm 0,0 nein 22:25
22:301,6 °C 3,9 °C 3,9 °C 94 % 1038,0 hPa 0,0 mm - 0,0 km/h 0,0 km/h SSW 0,0 W/qm 0,0 nein 22:30
22:351,6 °C 3,9 °C 3,9 °C 94 % 1038,0 hPa 0,0 mm - 0,0 km/h 0,0 km/h O 0,0 W/qm 0,0 nein 22:35
22:401,7 °C 3,9 °C 3,9 °C 94 % 1038,0 hPa 0,0 mm - 0,0 km/h 0,0 km/h O 0,0 W/qm 0,0 nein 22:40
22:451,7 °C 3,9 °C 3,9 °C 94 % 1038,0 hPa 0,0 mm - 0,0 km/h 1,4 km/h O 0,0 W/qm 0,0 nein 22:45
22:501,7 °C 3,9 °C 3,9 °C 94 % 1037,9 hPa 0,0 mm - 0,0 km/h 1,4 km/h O 0,0 W/qm 0,0 nein 22:50
22:551,8 °C 3,9 °C 3,9 °C 94 % 1038,0 hPa 0,0 mm - 0,0 km/h 1,4 km/h O 0,0 W/qm 0,0 nein 22:55
23:001,8 °C 3,9 °C 3,9 °C 94 % 1037,8 hPa 0,0 mm - 0,0 km/h 0,0 km/h NW 0,0 W/qm 0,0 nein 23:00
23:051,8 °C 3,9 °C 3,9 °C 94 % 1037,8 hPa 0,0 mm 0,4 mm 0,0 km/h 0,0 km/h S 0,0 W/qm 0,0 nein 23:05
23:101,8 °C 3,9 °C 3,9 °C 94 % 1037,8 hPa 0,0 mm 0,4 mm 0,0 km/h 3,2 km/h S 0,0 W/qm 0,0 nein 23:10
23:151,8 °C 3,9 °C 3,9 °C 94 % 1037,7 hPa 0,0 mm - 0,0 km/h 3,2 km/h S 0,0 W/qm 0,0 nein 23:15
23:201,7 °C 3,9 °C 3,9 °C 94 % 1037,9 hPa 0,0 mm - 0,0 km/h 1,4 km/h S 0,0 W/qm 0,0 nein 23:20
23:251,7 °C 3,9 °C 3,9 °C 94 % 1037,8 hPa 0,0 mm - 0,0 km/h 1,4 km/h S 0,0 W/qm 0,0 nein 23:25
23:301,8 °C 3,9 °C 3,9 °C 94 % 1037,6 hPa 0,0 mm - 0,0 km/h 1,4 km/h S 0,0 W/qm 0,0 nein 23:30
23:351,8 °C 3,9 °C 3,9 °C 94 % 1037,6 hPa 0,0 mm - 0,0 km/h 4,7 km/h S 0,0 W/qm 0,0 nein 23:35
23:401,8 °C 3,9 °C 3,9 °C 94 % 1037,4 hPa 0,0 mm - 0,0 km/h 4,7 km/h S 0,0 W/qm 0,0 nein 23:40
23:451,8 °C 3,9 °C 3,9 °C 94 % 1037,4 hPa 0,0 mm - 0,0 km/h 4,7 km/h S 0,0 W/qm 0,0 nein 23:45
23:501,9 °C 3,9 °C 3,9 °C 93 % 1037,4 hPa 0,0 mm - 0,0 km/h 1,4 km/h S 0,0 W/qm 0,0 nein 23:50
23:551,9 °C 3,9 °C 3,9 °C 93 % 1037,4 hPa 0,0 mm - 0,0 km/h 6,5 km/h S 0,0 W/qm 0,0 nein 23:55
Gesamt: 2,2 °C 3,5 °C 3,6 °C 92 % 1038,8 hPa 0,8 mm 9,6 mm 0,5 km/h 2,7 km/h 0 46,3 W/qm 0,1 ja

Insgesamt 288 Zeilen mal 13 Spalten = 3744 Werte werden angezeigt.

www.wetter-rosstal.de   •   www.wetter-franken.de   •   www.lightningmaps.org   •   Start   •   Kontakt / Datenschutz   •   PC-Kümmerer